sensor_id;sensor_type;location;lat;lon;timestamp;P1;durP1;ratioP1;P2;durP2;ratioP2
71975;SDS011;68326;52.124;5.424;2023-04-07T00:01:11;9.52;;;2.63;;
71975;SDS011;68326;52.124;5.424;2023-04-07T00:03:37;7.30;;;3.20;;
71975;SDS011;68326;52.124;5.424;2023-04-07T00:06:06;5.30;;;2.83;;
71975;SDS011;68326;52.124;5.424;2023-04-07T00:08:32;10.10;;;2.83;;
71975;SDS011;68326;52.124;5.424;2023-04-07T00:10:59;9.77;;;2.78;;
71975;SDS011;68326;52.124;5.424;2023-04-07T00:13:26;6.38;;;2.65;;
71975;SDS011;68326;52.124;5.424;2023-04-07T00:15:53;8.07;;;2.72;;
71975;SDS011;68326;52.124;5.424;2023-04-07T00:18:20;12.05;;;3.20;;
71975;SDS011;68326;52.124;5.424;2023-04-07T00:20:46;8.10;;;2.93;;
71975;SDS011;68326;52.124;5.424;2023-04-07T00:23:13;9.43;;;3.22;;
71975;SDS011;68326;52.124;5.424;2023-04-07T00:25:39;9.35;;;3.03;;
71975;SDS011;68326;52.124;5.424;2023-04-07T00:28:06;8.18;;;2.88;;
71975;SDS011;68326;52.124;5.424;2023-04-07T00:30:32;7.30;;;3.22;;
71975;SDS011;68326;52.124;5.424;2023-04-07T00:32:58;6.80;;;3.10;;
71975;SDS011;68326;52.124;5.424;2023-04-07T00:35:25;8.48;;;3.58;;
71975;SDS011;68326;52.124;5.424;2023-04-07T00:37:52;11.25;;;3.92;;
71975;SDS011;68326;52.124;5.424;2023-04-07T00:40:18;9.55;;;3.58;;
71975;SDS011;68326;52.124;5.424;2023-04-07T00:42:45;9.82;;;3.13;;
71975;SDS011;68326;52.124;5.424;2023-04-07T00:45:11;7.17;;;3.13;;
71975;SDS011;68326;52.124;5.424;2023-04-07T00:47:37;8.13;;;3.20;;
71975;SDS011;68326;52.124;5.424;2023-04-07T00:50:04;10.60;;;3.22;;
71975;SDS011;68326;52.124;5.424;2023-04-07T00:52:31;8.93;;;3.30;;
71975;SDS011;68326;52.124;5.424;2023-04-07T00:54:58;8.52;;;3.25;;
71975;SDS011;68326;52.124;5.424;2023-04-07T00:57:25;10.23;;;4.10;;
71975;SDS011;68326;52.124;5.424;2023-04-07T00:59:52;7.00;;;3.13;;
71975;SDS011;68326;52.124;5.424;2023-04-07T01:10:36;9.00;;;3.27;;
71975;SDS011;68326;52.124;5.424;2023-04-07T01:13:22;7.57;;;2.88;;
71975;SDS011;68326;52.124;5.424;2023-04-07T01:16:10;7.38;;;3.03;;
71975;SDS011;68326;52.124;5.424;2023-04-07T01:18:40;13.10;;;3.45;;
71975;SDS011;68326;52.124;5.424;2023-04-07T01:21:14;10.63;;;3.90;;
71975;SDS011;68326;52.124;5.424;2023-04-07T01:26:43;7.13;;;2.90;;
71975;SDS011;68326;52.124;5.424;2023-04-07T01:32:03;8.30;;;3.50;;
71975;SDS011;68326;52.124;5.424;2023-04-07T01:34:33;11.18;;;4.30;;
71975;SDS011;68326;52.124;5.424;2023-04-07T01:37:02;11.83;;;4.27;;
71975;SDS011;68326;52.124;5.424;2023-04-07T01:39:30;11.57;;;4.13;;
71975;SDS011;68326;52.124;5.424;2023-04-07T01:41:58;14.45;;;4.57;;
71975;SDS011;68326;52.124;5.424;2023-04-07T01:44:27;10.60;;;3.70;;
71975;SDS011;68326;52.124;5.424;2023-04-07T01:46:55;12.48;;;3.90;;
71975;SDS011;68326;52.124;5.424;2023-04-07T01:49:22;12.30;;;4.50;;
71975;SDS011;68326;52.124;5.424;2023-04-07T01:51:51;11.77;;;4.20;;
71975;SDS011;68326;52.124;5.424;2023-04-07T01:54:17;13.20;;;4.50;;
71975;SDS011;68326;52.124;5.424;2023-04-07T01:56:45;13.05;;;4.60;;
71975;SDS011;68326;52.124;5.424;2023-04-07T01:59:12;13.02;;;4.60;;
71975;SDS011;68326;52.124;5.424;2023-04-07T02:01:38;11.23;;;4.23;;
71975;SDS011;68326;52.124;5.424;2023-04-07T02:04:10;10.40;;;4.47;;
71975;SDS011;68326;52.124;5.424;2023-04-07T02:06:50;14.63;;;5.30;;
71975;SDS011;68326;52.124;5.424;2023-04-07T02:09:20;13.05;;;4.85;;
71975;SDS011;68326;52.124;5.424;2023-04-07T02:11:49;11.13;;;4.45;;
71975;SDS011;68326;52.124;5.424;2023-04-07T02:14:18;9.80;;;4.77;;
71975;SDS011;68326;52.124;5.424;2023-04-07T02:16:47;13.90;;;5.13;;
71975;SDS011;68326;52.124;5.424;2023-04-07T02:19:15;11.32;;;4.70;;
71975;SDS011;68326;52.124;5.424;2023-04-07T02:21:41;11.95;;;4.75;;
71975;SDS011;68326;52.124;5.424;2023-04-07T02:24:10;12.05;;;4.45;;
71975;SDS011;68326;52.124;5.424;2023-04-07T02:26:37;10.73;;;4.47;;
71975;SDS011;68326;52.124;5.424;2023-04-07T02:29:03;13.30;;;5.07;;
71975;SDS011;68326;52.124;5.424;2023-04-07T02:31:30;11.48;;;4.40;;
71975;SDS011;68326;52.124;5.424;2023-04-07T02:33:57;12.73;;;4.68;;
71975;SDS011;68326;52.124;5.424;2023-04-07T02:36:23;16.65;;;4.80;;
71975;SDS011;68326;52.124;5.424;2023-04-07T02:38:51;12.63;;;4.40;;
71975;SDS011;68326;52.124;5.424;2023-04-07T02:41:17;13.80;;;4.65;;
71975;SDS011;68326;52.124;5.424;2023-04-07T02:43:44;12.10;;;4.15;;
71975;SDS011;68326;52.124;5.424;2023-04-07T02:46:11;14.68;;;4.70;;
71975;SDS011;68326;52.124;5.424;2023-04-07T02:48:39;14.60;;;4.80;;
71975;SDS011;68326;52.124;5.424;2023-04-07T02:51:06;14.57;;;4.37;;
71975;SDS011;68326;52.124;5.424;2023-04-07T02:53:32;9.80;;;4.28;;
71975;SDS011;68326;52.124;5.424;2023-04-07T02:55:59;15.20;;;4.40;;
71975;SDS011;68326;52.124;5.424;2023-04-07T02:58:25;10.38;;;4.00;;
71975;SDS011;68326;52.124;5.424;2023-04-07T03:00:52;10.68;;;4.10;;
71975;SDS011;68326;52.124;5.424;2023-04-07T03:03:18;13.43;;;4.20;;
71975;SDS011;68326;52.124;5.424;2023-04-07T03:05:45;8.10;;;3.53;;
71975;SDS011;68326;52.124;5.424;2023-04-07T03:08:12;13.82;;;3.83;;
71975;SDS011;68326;52.124;5.424;2023-04-07T03:10:38;14.88;;;4.07;;
71975;SDS011;68326;52.124;5.424;2023-04-07T03:13:05;9.45;;;3.90;;
71975;SDS011;68326;52.124;5.424;2023-04-07T03:15:33;11.93;;;4.13;;
71975;SDS011;68326;52.124;5.424;2023-04-07T03:17:59;10.98;;;3.83;;
71975;SDS011;68326;52.124;5.424;2023-04-07T03:20:26;13.20;;;4.00;;
71975;SDS011;68326;52.124;5.424;2023-04-07T03:22:52;10.65;;;4.03;;
71975;SDS011;68326;52.124;5.424;2023-04-07T03:25:19;11.70;;;3.50;;
71975;SDS011;68326;52.124;5.424;2023-04-07T03:27:46;9.70;;;3.43;;
71975;SDS011;68326;52.124;5.424;2023-04-07T03:30:13;12.07;;;3.75;;
71975;SDS011;68326;52.124;5.424;2023-04-07T03:32:39;12.25;;;3.55;;
71975;SDS011;68326;52.124;5.424;2023-04-07T03:35:06;11.10;;;3.30;;
71975;SDS011;68326;52.124;5.424;2023-04-07T03:37:33;12.45;;;3.53;;
71975;SDS011;68326;52.124;5.424;2023-04-07T03:39:59;12.00;;;3.20;;
71975;SDS011;68326;52.124;5.424;2023-04-07T03:42:26;11.20;;;3.15;;
71975;SDS011;68326;52.124;5.424;2023-04-07T03:44:52;11.35;;;3.28;;
71975;SDS011;68326;52.124;5.424;2023-04-07T03:47:19;10.93;;;3.50;;
71975;SDS011;68326;52.124;5.424;2023-04-07T03:49:45;7.68;;;2.83;;
71975;SDS011;68326;52.124;5.424;2023-04-07T03:52:12;12.30;;;2.90;;
71975;SDS011;68326;52.124;5.424;2023-04-07T03:54:38;15.65;;;3.20;;
71975;SDS011;68326;52.124;5.424;2023-04-07T03:57:05;8.60;;;2.97;;
71975;SDS011;68326;52.124;5.424;2023-04-07T03:59:31;6.88;;;2.83;;
71975;SDS011;68326;52.124;5.424;2023-04-07T04:01:58;9.63;;;3.05;;
71975;SDS011;68326;52.124;5.424;2023-04-07T04:04:24;8.93;;;2.57;;
71975;SDS011;68326;52.124;5.424;2023-04-07T04:06:51;9.27;;;2.97;;
71975;SDS011;68326;52.124;5.424;2023-04-07T04:09:17;8.02;;;2.92;;
71975;SDS011;68326;52.124;5.424;2023-04-07T04:11:44;10.25;;;2.85;;
71975;SDS011;68326;52.124;5.424;2023-04-07T04:14:10;10.00;;;2.67;;
71975;SDS011;68326;52.124;5.424;2023-04-07T04:16:37;12.43;;;3.07;;
71975;SDS011;68326;52.124;5.424;2023-04-07T04:19:04;9.43;;;2.88;;
71975;SDS011;68326;52.124;5.424;2023-04-07T04:21:30;12.20;;;3.28;;
71975;SDS011;68326;52.124;5.424;2023-04-07T04:23:56;9.90;;;3.35;;
71975;SDS011;68326;52.124;5.424;2023-04-07T04:26:23;7.78;;;2.65;;
71975;SDS011;68326;52.124;5.424;2023-04-07T04:28:51;9.13;;;2.97;;
71975;SDS011;68326;52.124;5.424;2023-04-07T04:31:18;15.57;;;3.83;;
71975;SDS011;68326;52.124;5.424;2023-04-07T04:33:45;9.05;;;3.30;;
71975;SDS011;68326;52.124;5.424;2023-04-07T04:36:11;13.43;;;3.17;;
71975;SDS011;68326;52.124;5.424;2023-04-07T04:38:38;7.72;;;2.90;;
71975;SDS011;68326;52.124;5.424;2023-04-07T04:41:05;8.90;;;3.27;;
71975;SDS011;68326;52.124;5.424;2023-04-07T04:43:31;9.55;;;3.42;;
71975;SDS011;68326;52.124;5.424;2023-04-07T04:45:58;11.43;;;3.45;;
71975;SDS011;68326;52.124;5.424;2023-04-07T04:48:24;9.68;;;3.25;;
71975;SDS011;68326;52.124;5.424;2023-04-07T04:50:51;10.10;;;3.10;;
71975;SDS011;68326;52.124;5.424;2023-04-07T04:53:17;9.70;;;3.13;;
71975;SDS011;68326;52.124;5.424;2023-04-07T04:55:44;12.00;;;3.20;;
71975;SDS011;68326;52.124;5.424;2023-04-07T04:58:13;13.63;;;3.58;;
71975;SDS011;68326;52.124;5.424;2023-04-07T05:00:40;11.40;;;3.15;;
71975;SDS011;68326;52.124;5.424;2023-04-07T05:03:06;9.65;;;3.13;;
71975;SDS011;68326;52.124;5.424;2023-04-07T05:05:33;7.80;;;2.97;;
71975;SDS011;68326;52.124;5.424;2023-04-07T05:07:59;6.72;;;2.60;;
71975;SDS011;68326;52.124;5.424;2023-04-07T05:10:26;9.65;;;2.97;;
71975;SDS011;68326;52.124;5.424;2023-04-07T05:12:52;9.73;;;2.85;;
71975;SDS011;68326;52.124;5.424;2023-04-07T05:15:19;5.82;;;2.78;;
71975;SDS011;68326;52.124;5.424;2023-04-07T05:17:45;8.60;;;2.90;;
71975;SDS011;68326;52.124;5.424;2023-04-07T05:20:15;7.70;;;2.38;;
71975;SDS011;68326;52.124;5.424;2023-04-07T05:22:42;11.10;;;2.60;;
71975;SDS011;68326;52.124;5.424;2023-04-07T05:25:09;9.43;;;2.33;;
71975;SDS011;68326;52.124;5.424;2023-04-07T05:27:35;11.02;;;2.30;;
71975;SDS011;68326;52.124;5.424;2023-04-07T05:30:02;7.87;;;2.10;;
71975;SDS011;68326;52.124;5.424;2023-04-07T05:32:29;6.93;;;2.22;;
71975;SDS011;68326;52.124;5.424;2023-04-07T05:34:55;8.60;;;2.58;;
71975;SDS011;68326;52.124;5.424;2023-04-07T05:37:22;7.85;;;2.50;;
71975;SDS011;68326;52.124;5.424;2023-04-07T05:39:48;6.30;;;2.78;;
71975;SDS011;68326;52.124;5.424;2023-04-07T05:42:15;11.93;;;3.20;;
71975;SDS011;68326;52.124;5.424;2023-04-07T05:44:41;6.60;;;2.30;;
71975;SDS011;68326;52.124;5.424;2023-04-07T05:47:07;10.25;;;2.20;;
71975;SDS011;68326;52.124;5.424;2023-04-07T05:49:34;5.65;;;2.10;;
71975;SDS011;68326;52.124;5.424;2023-04-07T05:52:01;14.43;;;3.25;;
71975;SDS011;68326;52.124;5.424;2023-04-07T05:54:31;9.67;;;2.47;;
71975;SDS011;68326;52.124;5.424;2023-04-07T05:56:57;9.80;;;2.60;;
71975;SDS011;68326;52.124;5.424;2023-04-07T05:59:24;6.82;;;2.58;;
71975;SDS011;68326;52.124;5.424;2023-04-07T06:01:50;8.57;;;2.60;;
71975;SDS011;68326;52.124;5.424;2023-04-07T06:04:17;8.00;;;2.50;;
71975;SDS011;68326;52.124;5.424;2023-04-07T06:06:43;6.70;;;2.37;;
71975;SDS011;68326;52.124;5.424;2023-04-07T06:09:10;8.00;;;1.90;;
71975;SDS011;68326;52.124;5.424;2023-04-07T06:11:36;8.73;;;2.20;;
71975;SDS011;68326;52.124;5.424;2023-04-07T06:14:03;8.38;;;1.95;;
71975;SDS011;68326;52.124;5.424;2023-04-07T06:16:29;13.32;;;2.45;;
71975;SDS011;68326;52.124;5.424;2023-04-07T06:18:56;9.63;;;2.33;;
71975;SDS011;68326;52.124;5.424;2023-04-07T06:21:22;5.97;;;2.15;;
71975;SDS011;68326;52.124;5.424;2023-04-07T06:23:49;7.22;;;2.13;;
71975;SDS011;68326;52.124;5.424;2023-04-07T06:26:16;6.72;;;2.10;;
71975;SDS011;68326;52.124;5.424;2023-04-07T06:28:43;6.30;;;2.03;;
71975;SDS011;68326;52.124;5.424;2023-04-07T06:31:09;8.57;;;2.67;;
71975;SDS011;68326;52.124;5.424;2023-04-07T06:33:36;9.43;;;2.20;;
71975;SDS011;68326;52.124;5.424;2023-04-07T06:36:02;4.85;;;2.17;;
71975;SDS011;68326;52.124;5.424;2023-04-07T06:38:29;9.80;;;2.42;;
71975;SDS011;68326;52.124;5.424;2023-04-07T06:40:56;8.15;;;2.22;;
71975;SDS011;68326;52.124;5.424;2023-04-07T06:43:23;6.20;;;2.03;;
71975;SDS011;68326;52.124;5.424;2023-04-07T06:45:49;10.18;;;1.95;;
71975;SDS011;68326;52.124;5.424;2023-04-07T06:48:16;7.97;;;2.25;;
71975;SDS011;68326;52.124;5.424;2023-04-07T06:50:46;9.23;;;2.47;;
71975;SDS011;68326;52.124;5.424;2023-04-07T06:53:14;8.48;;;3.20;;
71975;SDS011;68326;52.124;5.424;2023-04-07T06:55:40;10.23;;;2.60;;
71975;SDS011;68326;52.124;5.424;2023-04-07T06:58:07;6.88;;;2.33;;
71975;SDS011;68326;52.124;5.424;2023-04-07T07:00:34;5.95;;;2.38;;
71975;SDS011;68326;52.124;5.424;2023-04-07T07:03:02;8.82;;;2.53;;
71975;SDS011;68326;52.124;5.424;2023-04-07T07:05:29;7.32;;;2.30;;
71975;SDS011;68326;52.124;5.424;2023-04-07T07:07:56;7.20;;;2.30;;
71975;SDS011;68326;52.124;5.424;2023-04-07T07:10:22;7.32;;;2.60;;
71975;SDS011;68326;52.124;5.424;2023-04-07T07:12:49;9.30;;;3.00;;
71975;SDS011;68326;52.124;5.424;2023-04-07T07:15:16;8.15;;;3.08;;
71975;SDS011;68326;52.124;5.424;2023-04-07T07:17:43;10.38;;;3.45;;
71975;SDS011;68326;52.124;5.424;2023-04-07T07:20:10;7.40;;;2.87;;
71975;SDS011;68326;52.124;5.424;2023-04-07T07:22:36;12.35;;;3.30;;
71975;SDS011;68326;52.124;5.424;2023-04-07T07:25:03;7.97;;;3.00;;
71975;SDS011;68326;52.124;5.424;2023-04-07T07:27:30;9.52;;;2.90;;
71975;SDS011;68326;52.124;5.424;2023-04-07T07:29:56;9.07;;;3.30;;
71975;SDS011;68326;52.124;5.424;2023-04-07T07:32:23;8.33;;;3.17;;
71975;SDS011;68326;52.124;5.424;2023-04-07T07:34:50;8.55;;;3.40;;
71975;SDS011;68326;52.124;5.424;2023-04-07T07:37:16;7.80;;;2.97;;
71975;SDS011;68326;52.124;5.424;2023-04-07T07:39:43;8.30;;;2.78;;
71975;SDS011;68326;52.124;5.424;2023-04-07T07:42:12;11.40;;;2.72;;
71975;SDS011;68326;52.124;5.424;2023-04-07T07:44:38;10.83;;;2.50;;
71975;SDS011;68326;52.124;5.424;2023-04-07T07:47:05;7.88;;;2.50;;
71975;SDS011;68326;52.124;5.424;2023-04-07T07:49:31;12.60;;;2.90;;
71975;SDS011;68326;52.124;5.424;2023-04-07T07:51:58;10.50;;;3.33;;
71975;SDS011;68326;52.124;5.424;2023-04-07T07:54:25;8.55;;;2.80;;
71975;SDS011;68326;52.124;5.424;2023-04-07T07:56:51;6.93;;;2.77;;
71975;SDS011;68326;52.124;5.424;2023-04-07T07:59:18;8.27;;;2.60;;
71975;SDS011;68326;52.124;5.424;2023-04-07T08:01:44;12.80;;;2.95;;
71975;SDS011;68326;52.124;5.424;2023-04-07T08:04:11;6.88;;;2.28;;
71975;SDS011;68326;52.124;5.424;2023-04-07T08:06:37;10.77;;;2.40;;
71975;SDS011;68326;52.124;5.424;2023-04-07T08:09:04;8.33;;;2.40;;
71975;SDS011;68326;52.124;5.424;2023-04-07T08:11:31;6.03;;;1.95;;
71975;SDS011;68326;52.124;5.424;2023-04-07T08:13:57;9.93;;;2.30;;
71975;SDS011;68326;52.124;5.424;2023-04-07T08:16:24;8.40;;;2.38;;
71975;SDS011;68326;52.124;5.424;2023-04-07T08:18:52;7.55;;;2.38;;
71975;SDS011;68326;52.124;5.424;2023-04-07T08:21:18;5.47;;;2.03;;
71975;SDS011;68326;52.124;5.424;2023-04-07T08:23:46;8.15;;;1.95;;
71975;SDS011;68326;52.124;5.424;2023-04-07T08:26:13;7.75;;;1.85;;
71975;SDS011;68326;52.124;5.424;2023-04-07T08:28:39;6.35;;;1.52;;
71975;SDS011;68326;52.124;5.424;2023-04-07T08:31:06;8.93;;;1.60;;
71975;SDS011;68326;52.124;5.424;2023-04-07T08:33:33;5.40;;;1.87;;
71975;SDS011;68326;52.124;5.424;2023-04-07T08:35:59;7.47;;;1.42;;
71975;SDS011;68326;52.124;5.424;2023-04-07T08:38:26;7.10;;;1.63;;
71975;SDS011;68326;52.124;5.424;2023-04-07T08:40:54;6.10;;;2.13;;
71975;SDS011;68326;52.124;5.424;2023-04-07T08:43:28;4.68;;;1.30;;
71975;SDS011;68326;52.124;5.424;2023-04-07T08:45:55;4.00;;;1.27;;
71975;SDS011;68326;52.124;5.424;2023-04-07T08:48:23;7.85;;;1.20;;
71975;SDS011;68326;52.124;5.424;2023-04-07T08:50:52;7.57;;;1.25;;
71975;SDS011;68326;52.124;5.424;2023-04-07T08:53:22;2.28;;;0.98;;
71975;SDS011;68326;52.124;5.424;2023-04-07T08:55:54;6.93;;;1.05;;
71975;SDS011;68326;52.124;5.424;2023-04-07T08:58:21;9.93;;;1.50;;
71975;SDS011;68326;52.124;5.424;2023-04-07T09:00:48;5.53;;;0.95;;
71975;SDS011;68326;52.124;5.424;2023-04-07T09:03:16;4.25;;;1.13;;
71975;SDS011;68326;52.124;5.424;2023-04-07T09:05:43;5.82;;;1.35;;
71975;SDS011;68326;52.124;5.424;2023-04-07T09:08:11;4.15;;;0.90;;
71975;SDS011;68326;52.124;5.424;2023-04-07T09:10:38;7.50;;;1.00;;
71975;SDS011;68326;52.124;5.424;2023-04-07T09:13:06;4.35;;;0.88;;
71975;SDS011;68326;52.124;5.424;2023-04-07T09:15:33;2.50;;;0.70;;
71975;SDS011;68326;52.124;5.424;2023-04-07T09:18:03;1.83;;;0.65;;
71975;SDS011;68326;52.124;5.424;2023-04-07T09:20:52;4.63;;;0.93;;
71975;SDS011;68326;52.124;5.424;2023-04-07T09:23:26;3.90;;;0.87;;
71975;SDS011;68326;52.124;5.424;2023-04-07T09:26:01;6.63;;;2.05;;
71975;SDS011;68326;52.124;5.424;2023-04-07T09:28:50;5.32;;;1.17;;
71975;SDS011;68326;52.124;5.424;2023-04-07T09:31:18;8.00;;;1.63;;
71975;SDS011;68326;52.124;5.424;2023-04-07T09:33:47;5.07;;;1.20;;
71975;SDS011;68326;52.124;5.424;2023-04-07T09:36:15;3.57;;;1.10;;
71975;SDS011;68326;52.124;5.424;2023-04-07T09:38:42;2.78;;;0.90;;
71975;SDS011;68326;52.124;5.424;2023-04-07T09:41:10;5.20;;;1.33;;
71975;SDS011;68326;52.124;5.424;2023-04-07T09:43:40;8.20;;;1.50;;
71975;SDS011;68326;52.124;5.424;2023-04-07T09:46:14;3.90;;;1.00;;
71975;SDS011;68326;52.124;5.424;2023-04-07T09:48:43;9.07;;;1.17;;
71975;SDS011;68326;52.124;5.424;2023-04-07T09:53:48;5.07;;;1.08;;
71975;SDS011;68326;52.124;5.424;2023-04-07T09:56:18;5.65;;;1.23;;
71975;SDS011;68326;52.124;5.424;2023-04-07T09:58:48;4.90;;;0.93;;
71975;SDS011;68326;52.124;5.424;2023-04-07T10:01:19;3.90;;;0.90;;
71975;SDS011;68326;52.124;5.424;2023-04-07T10:03:47;4.43;;;1.40;;
71975;SDS011;68326;52.124;5.424;2023-04-07T10:06:16;2.65;;;0.85;;
71975;SDS011;68326;52.124;5.424;2023-04-07T10:08:43;9.75;;;1.40;;
71975;SDS011;68326;52.124;5.424;2023-04-07T10:11:09;4.13;;;1.00;;
71975;SDS011;68326;52.124;5.424;2023-04-07T10:13:36;4.13;;;0.93;;
71975;SDS011;68326;52.124;5.424;2023-04-07T10:16:06;4.03;;;1.10;;
71975;SDS011;68326;52.124;5.424;2023-04-07T10:18:34;5.20;;;0.90;;
71975;SDS011;68326;52.124;5.424;2023-04-07T10:21:02;5.47;;;0.90;;
71975;SDS011;68326;52.124;5.424;2023-04-07T10:23:36;5.32;;;1.00;;
71975;SDS011;68326;52.124;5.424;2023-04-07T10:26:11;5.47;;;1.13;;
71975;SDS011;68326;52.124;5.424;2023-04-07T10:28:43;4.40;;;1.00;;
71975;SDS011;68326;52.124;5.424;2023-04-07T10:31:13;8.13;;;1.38;;
71975;SDS011;68326;52.124;5.424;2023-04-07T10:33:44;3.88;;;0.90;;
71975;SDS011;68326;52.124;5.424;2023-04-07T10:36:14;3.05;;;0.88;;
71975;SDS011;68326;52.124;5.424;2023-04-07T10:38:54;5.60;;;1.00;;
71975;SDS011;68326;52.124;5.424;2023-04-07T10:41:38;8.10;;;1.00;;
71975;SDS011;68326;52.124;5.424;2023-04-07T10:44:07;7.63;;;1.30;;
71975;SDS011;68326;52.124;5.424;2023-04-07T10:49:10;4.97;;;1.02;;
71975;SDS011;68326;52.124;5.424;2023-04-07T10:51:38;4.40;;;1.00;;
71975;SDS011;68326;52.124;5.424;2023-04-07T10:54:21;2.70;;;1.00;;
71975;SDS011;68326;52.124;5.424;2023-04-07T10:57:07;4.20;;;1.10;;
71975;SDS011;68326;52.124;5.424;2023-04-07T10:59:36;4.03;;;0.88;;
71975;SDS011;68326;52.124;5.424;2023-04-07T11:04:40;5.93;;;0.83;;
71975;SDS011;68326;52.124;5.424;2023-04-07T11:07:09;3.80;;;1.25;;
71975;SDS011;68326;52.124;5.424;2023-04-07T11:09:36;3.10;;;0.80;;
71975;SDS011;68326;52.124;5.424;2023-04-07T11:12:03;6.45;;;1.08;;
71975;SDS011;68326;52.124;5.424;2023-04-07T11:14:32;5.65;;;1.50;;
71975;SDS011;68326;52.124;5.424;2023-04-07T11:17:02;8.70;;;1.40;;
71975;SDS011;68326;52.124;5.424;2023-04-07T11:19:29;4.25;;;1.45;;
71975;SDS011;68326;52.124;5.424;2023-04-07T11:22:13;7.93;;;1.95;;
71975;SDS011;68326;52.124;5.424;2023-04-07T11:24:55;5.18;;;1.38;;
71975;SDS011;68326;52.124;5.424;2023-04-07T11:27:22;5.55;;;1.40;;
71975;SDS011;68326;52.124;5.424;2023-04-07T11:29:48;7.30;;;1.53;;
71975;SDS011;68326;52.124;5.424;2023-04-07T11:32:15;7.43;;;1.70;;
71975;SDS011;68326;52.124;5.424;2023-04-07T11:34:51;4.47;;;1.45;;
71975;SDS011;68326;52.124;5.424;2023-04-07T11:37:18;7.15;;;1.33;;
71975;SDS011;68326;52.124;5.424;2023-04-07T11:39:52;6.57;;;1.50;;
71975;SDS011;68326;52.124;5.424;2023-04-07T11:45:02;4.90;;;1.42;;
71975;SDS011;68326;52.124;5.424;2023-04-07T11:47:35;6.03;;;1.98;;
71975;SDS011;68326;52.124;5.424;2023-04-07T11:50:03;6.22;;;1.60;;
71975;SDS011;68326;52.124;5.424;2023-04-07T11:52:40;4.43;;;1.20;;
71975;SDS011;68326;52.124;5.424;2023-04-07T11:55:21;8.60;;;1.60;;
71975;SDS011;68326;52.124;5.424;2023-04-07T11:57:49;6.57;;;0.85;;
71975;SDS011;68326;52.124;5.424;2023-04-07T12:00:17;7.15;;;1.40;;
71975;SDS011;68326;52.124;5.424;2023-04-07T12:02:45;7.60;;;1.77;;
71975;SDS011;68326;52.124;5.424;2023-04-07T12:05:12;5.28;;;1.30;;
71975;SDS011;68326;52.124;5.424;2023-04-07T12:07:39;6.73;;;1.80;;
71975;SDS011;68326;52.124;5.424;2023-04-07T12:12:46;7.65;;;1.70;;
71975;SDS011;68326;52.124;5.424;2023-04-07T12:15:13;3.67;;;1.60;;
71975;SDS011;68326;52.124;5.424;2023-04-07T12:17:43;4.72;;;1.92;;
71975;SDS011;68326;52.124;5.424;2023-04-07T12:20:13;7.03;;;1.80;;
71975;SDS011;68326;52.124;5.424;2023-04-07T12:22:40;5.07;;;1.80;;
71975;SDS011;68326;52.124;5.424;2023-04-07T12:25:06;4.10;;;1.40;;
71975;SDS011;68326;52.124;5.424;2023-04-07T12:27:33;6.07;;;1.75;;
71975;SDS011;68326;52.124;5.424;2023-04-07T12:30:08;6.63;;;2.17;;
71975;SDS011;68326;52.124;5.424;2023-04-07T12:32:35;4.77;;;1.70;;
71975;SDS011;68326;52.124;5.424;2023-04-07T12:35:03;3.65;;;1.15;;
71975;SDS011;68326;52.124;5.424;2023-04-07T12:37:30;5.00;;;1.38;;
71975;SDS011;68326;52.124;5.424;2023-04-07T12:39:58;5.88;;;1.35;;
71975;SDS011;68326;52.124;5.424;2023-04-07T12:42:25;6.13;;;1.50;;
71975;SDS011;68326;52.124;5.424;2023-04-07T12:44:52;4.80;;;1.30;;
71975;SDS011;68326;52.124;5.424;2023-04-07T12:47:18;3.22;;;1.42;;
71975;SDS011;68326;52.124;5.424;2023-04-07T12:49:45;3.97;;;1.50;;
71975;SDS011;68326;52.124;5.424;2023-04-07T12:52:14;3.08;;;1.17;;
71975;SDS011;68326;52.124;5.424;2023-04-07T12:54:41;4.75;;;1.23;;
71975;SDS011;68326;52.124;5.424;2023-04-07T12:57:09;3.80;;;1.10;;
71975;SDS011;68326;52.124;5.424;2023-04-07T12:59:36;3.80;;;1.15;;
71975;SDS011;68326;52.124;5.424;2023-04-07T13:02:02;3.22;;;1.15;;
71975;SDS011;68326;52.124;5.424;2023-04-07T13:04:30;3.92;;;1.30;;
71975;SDS011;68326;52.124;5.424;2023-04-07T13:06:56;5.32;;;1.10;;
71975;SDS011;68326;52.124;5.424;2023-04-07T13:09:23;4.20;;;1.03;;
71975;SDS011;68326;52.124;5.424;2023-04-07T13:11:50;3.17;;;1.27;;
71975;SDS011;68326;52.124;5.424;2023-04-07T13:14:17;6.40;;;1.45;;
71975;SDS011;68326;52.124;5.424;2023-04-07T13:16:43;6.90;;;1.13;;
71975;SDS011;68326;52.124;5.424;2023-04-07T13:19:10;4.95;;;0.90;;
71975;SDS011;68326;52.124;5.424;2023-04-07T13:21:36;5.13;;;1.00;;
71975;SDS011;68326;52.124;5.424;2023-04-07T13:24:06;7.15;;;1.20;;
71975;SDS011;68326;52.124;5.424;2023-04-07T13:26:32;2.03;;;1.15;;
71975;SDS011;68326;52.124;5.424;2023-04-07T13:28:59;4.15;;;1.33;;
71975;SDS011;68326;52.124;5.424;2023-04-07T13:31:26;5.88;;;1.38;;
71975;SDS011;68326;52.124;5.424;2023-04-07T13:33:53;5.43;;;1.47;;
71975;SDS011;68326;52.124;5.424;2023-04-07T13:36:20;4.93;;;1.65;;
71975;SDS011;68326;52.124;5.424;2023-04-07T13:38:48;7.05;;;1.80;;
71975;SDS011;68326;52.124;5.424;2023-04-07T13:41:15;9.20;;;2.38;;
71975;SDS011;68326;52.124;5.424;2023-04-07T13:43:41;8.27;;;2.08;;
71975;SDS011;68326;52.124;5.424;2023-04-07T13:46:08;4.27;;;2.00;;
71975;SDS011;68326;52.124;5.424;2023-04-07T13:48:45;5.70;;;2.08;;
71975;SDS011;68326;52.124;5.424;2023-04-07T13:51:11;6.07;;;2.28;;
71975;SDS011;68326;52.124;5.424;2023-04-07T13:53:38;7.03;;;2.20;;
71975;SDS011;68326;52.124;5.424;2023-04-07T13:56:04;3.25;;;1.63;;
71975;SDS011;68326;52.124;5.424;2023-04-07T13:58:34;6.97;;;1.77;;
71975;SDS011;68326;52.124;5.424;2023-04-07T14:01:01;4.90;;;1.60;;
71975;SDS011;68326;52.124;5.424;2023-04-07T14:03:28;5.43;;;1.60;;
71975;SDS011;68326;52.124;5.424;2023-04-07T14:05:55;6.43;;;1.80;;
71975;SDS011;68326;52.124;5.424;2023-04-07T14:08:26;4.68;;;1.55;;
71975;SDS011;68326;52.124;5.424;2023-04-07T14:10:53;3.67;;;1.40;;
71975;SDS011;68326;52.124;5.424;2023-04-07T14:13:19;5.30;;;1.30;;
71975;SDS011;68326;52.124;5.424;2023-04-07T14:15:46;7.43;;;1.35;;
71975;SDS011;68326;52.124;5.424;2023-04-07T14:18:13;4.68;;;1.85;;
71975;SDS011;68326;52.124;5.424;2023-04-07T14:20:40;4.43;;;1.60;;
71975;SDS011;68326;52.124;5.424;2023-04-07T14:23:07;4.80;;;1.23;;
71975;SDS011;68326;52.124;5.424;2023-04-07T14:25:33;4.55;;;1.15;;
71975;SDS011;68326;52.124;5.424;2023-04-07T14:28:00;4.43;;;1.38;;
71975;SDS011;68326;52.124;5.424;2023-04-07T14:30:26;2.70;;;1.30;;
71975;SDS011;68326;52.124;5.424;2023-04-07T14:32:53;4.03;;;1.23;;
71975;SDS011;68326;52.124;5.424;2023-04-07T14:35:19;4.00;;;1.30;;
71975;SDS011;68326;52.124;5.424;2023-04-07T14:37:47;2.92;;;1.10;;
71975;SDS011;68326;52.124;5.424;2023-04-07T14:40:13;4.05;;;1.50;;
71975;SDS011;68326;52.124;5.424;2023-04-07T14:42:39;5.90;;;1.48;;
71975;SDS011;68326;52.124;5.424;2023-04-07T14:45:06;5.63;;;1.25;;
71975;SDS011;68326;52.124;5.424;2023-04-07T14:47:34;5.70;;;1.80;;
71975;SDS011;68326;52.124;5.424;2023-04-07T14:50:00;5.40;;;1.58;;
71975;SDS011;68326;52.124;5.424;2023-04-07T14:52:27;7.45;;;1.60;;
71975;SDS011;68326;52.124;5.424;2023-04-07T14:54:53;5.45;;;1.50;;
71975;SDS011;68326;52.124;5.424;2023-04-07T14:57:20;6.50;;;1.90;;
71975;SDS011;68326;52.124;5.424;2023-04-07T14:59:47;8.43;;;2.40;;
71975;SDS011;68326;52.124;5.424;2023-04-07T15:02:14;6.47;;;2.25;;
71975;SDS011;68326;52.124;5.424;2023-04-07T15:04:40;4.97;;;1.58;;
71975;SDS011;68326;52.124;5.424;2023-04-07T15:07:07;8.15;;;2.30;;
71975;SDS011;68326;52.124;5.424;2023-04-07T15:09:34;5.50;;;2.20;;
71975;SDS011;68326;52.124;5.424;2023-04-07T15:12:00;8.10;;;2.30;;
71975;SDS011;68326;52.124;5.424;2023-04-07T15:14:27;4.28;;;2.10;;
71975;SDS011;68326;52.124;5.424;2023-04-07T15:16:53;4.55;;;1.90;;